createdAt,value
2023-05-10T00:05:40.619Z,20.8
2023-05-10T00:15:49.666Z,20.6
2023-05-10T00:25:50.836Z,20.6
2023-05-10T00:35:59.682Z,20.4
2023-05-10T00:46:08.513Z,20.2
2023-05-10T00:56:17.218Z,20.1
2023-05-10T01:06:26.003Z,20
2023-05-10T01:16:34.815Z,19.8
2023-05-10T01:26:43.531Z,19.8
2023-05-10T01:36:52.207Z,19.7
2023-05-10T01:47:00.963Z,19.6
2023-05-10T01:57:09.773Z,19.5
2023-05-10T02:07:18.602Z,19.5
2023-05-10T02:17:27.387Z,19.5
2023-05-10T02:27:36.225Z,19.5
2023-05-10T02:37:45.002Z,19.7
2023-05-10T02:47:53.715Z,19.6
2023-05-10T02:58:02.587Z,19.4
2023-05-10T03:08:12.402Z,19.4
2023-05-10T03:18:21.206Z,19.4
2023-05-10T03:28:30.214Z,19.5
2023-05-10T03:38:39.635Z,19.3
2023-05-10T03:48:48.369Z,19.3
2023-05-10T03:58:57.028Z,19.3
2023-05-10T04:09:05.903Z,19.1
2023-05-10T04:19:14.588Z,18.9
2023-05-10T04:29:23.792Z,18.7
2023-05-10T04:39:32.555Z,18.6
2023-05-10T04:49:40.725Z,18.3
2023-05-10T04:59:50.415Z,18.2
2023-05-10T05:09:57.901Z,18
2023-05-10T05:20:06.788Z,17.8
2023-05-10T05:30:15.753Z,17.9
2023-05-10T05:40:24.154Z,17.9
2023-05-10T05:50:33.042Z,18
2023-05-10T06:00:41.660Z,18
2023-05-10T06:10:50.483Z,17.8
2023-05-10T06:20:50.656Z,17.9
2023-05-10T06:30:59.737Z,18.1
2023-05-10T06:41:08.401Z,18.1
2023-05-10T06:51:16.805Z,18.5
2023-05-10T07:01:25.649Z,19.6
2023-05-10T07:11:34.369Z,21.2
2023-05-10T07:21:43.016Z,21.9
2023-05-10T07:31:51.799Z,22.4
2023-05-10T07:42:00.186Z,23.1
2023-05-10T07:52:08.906Z,23.1
2023-05-10T08:02:17.503Z,21.5
2023-05-10T08:12:26.126Z,20.8
2023-05-10T08:22:34.923Z,21
2023-05-10T08:32:43.237Z,22.3
2023-05-10T08:42:52.196Z,23.9
2023-05-10T08:53:01.022Z,23.8
2023-05-10T09:03:09.717Z,24.3
2023-05-10T09:13:18.360Z,24.7
2023-05-10T09:23:26.982Z,26.3
2023-05-10T09:33:35.825Z,25.8
2023-05-10T09:43:44.515Z,26.3
2023-05-10T09:53:53.405Z,25.9
2023-05-10T10:04:02.162Z,25.8
2023-05-10T10:14:10.907Z,26.1
2023-05-10T10:24:19.578Z,26.2
2023-05-10T10:34:28.153Z,26.1
2023-05-10T10:44:37.311Z,25.9
2023-05-10T10:54:46.141Z,25.6
2023-05-10T11:04:55.450Z,25.3
2023-05-10T11:15:04.169Z,24.1
2023-05-10T11:25:12.940Z,24.2
2023-05-10T11:35:21.561Z,24.2
2023-05-10T11:45:30.354Z,24.2
2023-05-10T11:55:38.982Z,23.4
2023-05-10T12:05:47.637Z,23.3
2023-05-10T12:15:56.334Z,23.5
2023-05-10T12:26:05.022Z,23.1
2023-05-10T12:36:13.561Z,23.4
2023-05-10T12:46:13.908Z,23.5
2023-05-10T12:56:21.812Z,23
2023-05-10T13:06:29.611Z,23.5
2023-05-10T13:16:37.377Z,23.7
2023-05-10T13:26:45.078Z,23.9
2023-05-10T13:36:58.554Z,24.2
2023-05-10T13:46:56.499Z,24.2
2023-05-10T13:57:04.388Z,24
2023-05-10T14:07:12.197Z,23.6
2023-05-10T14:17:21.203Z,23.3
2023-05-10T14:27:29.055Z,23.1
2023-05-10T14:37:36.961Z,23.3
2023-05-10T14:47:46.237Z,22.8
2023-05-10T14:57:54.120Z,23.2
2023-05-10T15:08:02.685Z,22.8
2023-05-10T15:18:10.706Z,22.6
2023-05-10T15:28:20.488Z,22.6
2023-05-10T15:38:28.004Z,22.7
2023-05-10T15:48:35.887Z,22.7
2023-05-10T15:58:43.888Z,22.1
2023-05-10T16:08:54.109Z,22.3
2023-05-10T16:19:00.686Z,22.2
2023-05-10T16:29:09.453Z,22.1
2023-05-10T16:39:18.320Z,22.2
2023-05-10T16:49:27.076Z,21.9
2023-05-10T16:59:35.660Z,22.3
2023-05-10T17:09:44.306Z,21.9
2023-05-10T17:19:53.582Z,21.6
2023-05-10T17:30:11.656Z,21.7
2023-05-10T17:40:08.674Z,21.5
2023-05-10T17:50:12.568Z,21.4
2023-05-10T18:00:16.654Z,21.1
2023-05-10T18:10:24.450Z,20.9
2023-05-10T18:20:23.817Z,20.7
2023-05-10T18:30:32.608Z,20.8
2023-05-10T18:40:39.627Z,20.4
2023-05-10T18:50:47.891Z,20.4
2023-05-10T19:00:53.447Z,20.4
2023-05-10T19:11:02.035Z,20.1
2023-05-10T19:21:10.767Z,20
2023-05-10T19:31:13.029Z,19.9
2023-05-10T19:41:22.419Z,20
2023-05-10T19:51:33.939Z,19.8
2023-05-10T20:01:32.909Z,19.9
2023-05-10T20:11:32.923Z,19.9
2023-05-10T20:21:41.600Z,19.8
2023-05-10T20:31:50.865Z,19.6
2023-05-10T20:42:00.527Z,19.7
2023-05-10T20:52:09.157Z,19.9
2023-05-10T21:02:17.366Z,19.7
2023-05-10T21:12:26.351Z,19.9
2023-05-10T21:22:34.069Z,19.7
2023-05-10T21:32:34.305Z,19.5
2023-05-10T21:42:33.081Z,19.6
2023-05-10T21:52:34.938Z,19.8
2023-05-10T22:02:43.699Z,19.5
2023-05-10T22:12:48.181Z,19.7
2023-05-10T22:22:47.709Z,19.5
2023-05-10T22:32:56.547Z,19.4
2023-05-10T22:43:04.880Z,19.6
2023-05-10T22:53:07.884Z,19.5
2023-05-10T23:03:16.595Z,19.7
2023-05-10T23:13:25.293Z,19.7
2023-05-10T23:23:33.909Z,19.7
2023-05-10T23:33:42.353Z,19.4
2023-05-10T23:43:51.056Z,19.2
2023-05-10T23:53:59.724Z,19.3
